Terminal Aerodrome Forecast
Issued by NWS

Current Version | Previous Version | Text Only | Print | Product List | Glossary Off
Versions: 1 2 3 4 5 6 7 8 9 10 11 12 13

000
FTUS41 KRNK 222118 AAA
TAFLWB
TAF AMD
KLWB 222118Z 2221/2318 27010G18KT P6SM BKN045 BKN070
     FM230000 30008KT P6SM BKN025
     FM230700 30008KT P6SM SCT030
     FM231500 30011G21KT P6SM SKC=

USA.gov is the U.S. government's official web portal to all federal, state and local government web resources and services.